Briefing drone pour Sorbiers

Rechercher une autre localisation

Conditions de vol :


Nous sommes le : Mercredi 12 mai 2021
Il est 23:29 UTC (01:29 LT)

Lever de soleil : 03:48 UTC (05:48 LT)
Coucher de soleil : 19:28 UTC (21:28 LT)

Météo

L'essentiel des conditions de vol

VIGILANCE MÉTÉO FRANCE - Loire (42)
Vigilance Jaune : Inondation
CARTE TEMSI
CARTES DES FRONTS
METAR de LFMH
LFMH 112300Z AUTO VRB01KT CAVOK 05/04 Q1017

Date d'émission: 11/05/2021
Heure d'émission: 23:00 UTC
Vent: Variable 1 KT (2 km/h)
Visibilité horizontale: > 10 km
Plafond : Plafond et visibilité OK (CAVOK)
Température: 5 °C
Point de rosée: 4 °C
Humidité: 93%
Pression (QNH): 1017 hPa
TAF de LFMH
LFMH 111902Z 1119/1212 CNL

Conditions prévues :

Heure d'émission : Bulletin éffectué le 11 à 19:00 UTC
Prévision : Valide du 11 a 19:00 UTC au 12 a 12:00 UTC
Nuages : à 0ft (0 m)
WEBCAM POUR SORBIERS

Réglementation

Voler en sécurité

CARTES AERONAUTIQUE 1/500.000
CARTES VAC (LFMH)
SUP AIP




Chargement des AIP...
NOTAM (SORBIERS + Terrain à proximité / FIR )




Chargement des NOTAMS...
CONTACT PREFECTURE 42


Avertissement : Les données mises à disposition sont indicatives. Oxygène Drone ne pourra être tenu responsable de dégâts causés aux biens et aux personnes.